createdAt,value
2022-10-18T00:01:08.244Z,99018.66
2022-10-18T00:03:38.514Z,99018.93
2022-10-18T00:06:08.768Z,99016.50
2022-10-18T00:08:38.306Z,99019.17
2022-10-18T00:11:07.192Z,99017.58
2022-10-18T00:13:34.969Z,99020.23
2022-10-18T00:16:07.670Z,99016.50
2022-10-18T00:18:35.572Z,99015.69
2022-10-18T00:21:09.244Z,99016.47
2022-10-18T00:23:37.320Z,99013.52
2022-10-18T00:26:12.971Z,99015.11
2022-10-18T00:28:44.935Z,99010.02
2022-10-18T00:31:19.836Z,99008.64
2022-10-18T00:33:58.443Z,99004.64
2022-10-18T00:36:28.620Z,99006.47
2022-10-18T00:38:57.405Z,99003.77
2022-10-18T00:41:29.867Z,99003.22
2022-10-18T00:44:06.529Z,99002.66
2022-10-18T00:46:37.482Z,98995.16
2022-10-18T00:49:12.859Z,98991.16
2022-10-18T00:51:52.201Z,98989.52
2022-10-18T00:54:21.119Z,98993.00
2022-10-18T00:56:50.906Z,98992.71
2022-10-18T00:59:20.123Z,98989.77
2022-10-18T01:01:48.084Z,98978.55
2022-10-18T01:04:18.383Z,98979.06
2022-10-18T01:07:28.069Z,98983.08
2022-10-18T01:10:19.919Z,98973.96
2022-10-18T01:13:14.277Z,98965.13
2022-10-18T01:16:19.572Z,98964.03
2022-10-18T01:19:16.787Z,98965.37
2022-10-18T01:22:04.823Z,98961.59
2022-10-18T01:24:41.217Z,98957.59
2022-10-18T01:27:48.146Z,98960.24
2022-10-18T01:30:36.180Z,98955.41
2022-10-18T01:33:12.573Z,98960.73
2022-10-18T01:35:48.334Z,98953.52
2022-10-18T01:38:18.522Z,98956.45
2022-10-18T01:40:49.730Z,98949.20
2022-10-18T01:43:19.889Z,98953.75
2022-10-18T01:45:49.011Z,98948.11
2022-10-18T01:48:18.449Z,98943.28
2022-10-18T01:50:46.551Z,98943.51
2022-10-18T01:53:26.956Z,98943.22
2022-10-18T01:56:06.301Z,98944.02
2022-10-18T01:59:11.661Z,98944.29
2022-10-18T02:02:06.784Z,98931.17
2022-10-18T02:04:48.266Z,98934.63
2022-10-18T02:07:36.019Z,98932.48
2022-10-18T02:10:45.784Z,98934.86
2022-10-18T02:13:18.370Z,98929.23
2022-10-18T02:15:50.148Z,98930.03
2022-10-18T02:18:29.126Z,98932.94
2022-10-18T02:20:58.953Z,98933.45
2022-10-18T02:23:27.331Z,98917.16
2022-10-18T02:25:55.547Z,98928.91
2022-10-18T02:31:26.714Z,98928.36
2022-10-18T02:34:19.408Z,98917.14
2022-10-18T02:36:53.901Z,98916.09
2022-10-18T02:39:26.985Z,98920.61
2022-10-18T02:41:56.702Z,98922.48
2022-10-18T02:44:24.877Z,98919.81
2022-10-18T02:46:53.152Z,98916.88
2022-10-18T02:49:21.256Z,98916.09
2022-10-18T02:51:49.137Z,98912.09
2022-10-18T02:54:17.164Z,98911.02
2022-10-18T02:56:45.050Z,98912.63
2022-10-18T02:59:12.988Z,98917.42
2022-10-18T03:01:40.794Z,98916.09
2022-10-18T03:04:09.569Z,98920.93
2022-10-18T03:06:37.679Z,98913.44
2022-10-18T03:09:07.843Z,98911.28
2022-10-18T03:11:36.022Z,98913.42
2022-10-18T03:14:04.042Z,98914.75
2022-10-18T03:16:33.492Z,98915.03
2022-10-18T03:19:01.641Z,98915.27
2022-10-18T03:21:30.932Z,98912.59
2022-10-18T03:23:59.448Z,98912.33
2022-10-18T03:26:29.188Z,98911.27
2022-10-18T03:28:57.438Z,98908.84
2022-10-18T03:31:28.469Z,98906.41
2022-10-18T03:33:58.012Z,98909.34
2022-10-18T03:36:26.085Z,98907.45
2022-10-18T03:38:59.228Z,98906.39
2022-10-18T03:41:27.863Z,98901.80
2022-10-18T03:43:55.827Z,98895.92
2022-10-18T03:46:24.195Z,98900.17
2022-10-18T03:48:52.337Z,98900.44
2022-10-18T03:51:20.332Z,98904.17
2022-10-18T03:53:48.376Z,98904.95
2022-10-18T03:56:16.556Z,98903.05
2022-10-18T03:58:44.718Z,98903.88
2022-10-18T04:01:12.707Z,98904.13
2022-10-18T04:03:49.551Z,98900.65
2022-10-18T04:06:21.242Z,98907.59
2022-10-18T04:09:10.218Z,98898.48
2022-10-18T04:11:40.024Z,98901.95
2022-10-18T04:14:17.124Z,98901.72
2022-10-18T04:16:56.436Z,98876.52
2022-10-18T04:19:41.447Z,98887.55
2022-10-18T04:22:32.907Z,98890.75
2022-10-18T04:25:07.147Z,98896.06
2022-10-18T04:27:36.408Z,98889.39
2022-10-18T04:30:07.176Z,98883.52
2022-10-18T04:32:37.309Z,98886.72
2022-10-18T04:35:11.253Z,98888.31
2022-10-18T04:37:41.793Z,98883.75
2022-10-18T04:40:17.662Z,98883.48
2022-10-18T04:42:45.736Z,98882.95
2022-10-18T04:45:14.010Z,98881.62
2022-10-18T04:47:42.057Z,98880.52
2022-10-18T04:50:10.637Z,98879.19
2022-10-18T04:52:38.976Z,98879.45
2022-10-18T04:55:08.923Z,98874.66
2022-10-18T04:57:46.225Z,98877.05
2022-10-18T05:00:15.484Z,98878.38
2022-10-18T05:02:45.212Z,98878.17
2022-10-18T05:05:18.742Z,98886.69
2022-10-18T05:07:47.367Z,98886.18
2022-10-18T05:10:16.805Z,98879.91
2022-10-18T05:12:45.000Z,98881.85
2022-10-18T05:15:13.264Z,98875.41
2022-10-18T05:17:41.541Z,98877.22
2022-10-18T05:20:11.322Z,98874.36
2022-10-18T05:22:41.192Z,98874.57
2022-10-18T05:25:09.672Z,98878.72
2022-10-18T05:27:37.536Z,98880.84
2022-10-18T05:30:06.500Z,98872.44
2022-10-18T05:32:34.795Z,98877.59
2022-10-18T05:35:03.015Z,98879.26
2022-10-18T05:37:31.048Z,98885.23
2022-10-18T05:39:58.935Z,98884.12
2022-10-18T05:42:26.945Z,98876.18
2022-10-18T05:44:54.947Z,98880.52
2022-10-18T05:47:23.063Z,98882.73
2022-10-18T05:49:51.093Z,98879.20
2022-10-18T05:52:19.187Z,98876.17
2022-10-18T05:54:47.266Z,98882.51
2022-10-18T05:57:15.373Z,98888.77
2022-10-18T05:59:44.571Z,98889.22
2022-10-18T06:02:13.055Z,98881.59
2022-10-18T06:05:31.467Z,98887.52
2022-10-18T06:08:07.899Z,98885.01
2022-10-18T06:10:46.990Z,98885.03
2022-10-18T06:13:15.056Z,98881.88
2022-10-18T06:15:43.152Z,98875.95
2022-10-18T06:18:11.262Z,98878.95
2022-10-18T06:20:39.677Z,98881.83
2022-10-18T06:23:08.195Z,98880.34
2022-10-18T06:25:36.330Z,98884.42
2022-10-18T06:28:07.793Z,98881.66
2022-10-18T06:30:36.763Z,98877.83
2022-10-18T06:33:04.675Z,98870.66
2022-10-18T06:35:32.757Z,98873.54
2022-10-18T06:38:00.597Z,98869.31
2022-10-18T06:40:30.367Z,98865.70
2022-10-18T06:43:16.247Z,98867.22
2022-10-18T06:45:30.536Z,98859.48
2022-10-18T06:47:58.689Z,98861.56
2022-10-18T06:50:26.704Z,98864.78
2022-10-18T06:52:54.765Z,98868.91
2022-10-18T06:55:22.824Z,98862.08
2022-10-18T06:57:51.237Z,98861.52
2022-10-18T07:00:22.526Z,98859.67
2022-10-18T07:02:50.395Z,98864.09
2022-10-18T07:05:19.175Z,98865.28
2022-10-18T07:07:47.221Z,98859.87
2022-10-18T07:10:15.327Z,98853.72
2022-10-18T07:12:43.297Z,98852.94
2022-10-18T07:15:11.309Z,98851.35
2022-10-18T07:17:39.369Z,98852.91
2022-10-18T07:20:07.997Z,98853.06
2022-10-18T07:22:37.771Z,98849.23
2022-10-18T07:25:07.819Z,98850.02
2022-10-18T07:27:41.830Z,98849.05
2022-10-18T07:30:11.133Z,98840.78
2022-10-18T07:32:39.110Z,98841.17
2022-10-18T07:35:07.657Z,98836.19
2022-10-18T07:37:35.910Z,98836.30
2022-10-18T07:40:04.696Z,98838.31
2022-10-18T07:42:35.416Z,98836.95
2022-10-18T07:45:04.145Z,98831.81
2022-10-18T07:47:35.110Z,98835.88
2022-10-18T07:50:02.394Z,98827.03
2022-10-18T07:52:33.363Z,98835.69
2022-10-18T07:55:03.322Z,98831.88
2022-10-18T07:57:31.555Z,98827.61
2022-10-18T08:00:02.177Z,98828.10
2022-10-18T08:02:31.876Z,98818.99
2022-10-18T08:04:59.815Z,98823.48
2022-10-18T08:07:27.748Z,98818.08
2022-10-18T08:09:55.399Z,98815.63
2022-10-18T08:12:23.110Z,98816.39
2022-10-18T08:14:51.105Z,98816.64
2022-10-18T08:17:18.949Z,98816.02
2022-10-18T08:19:58.553Z,98817.42
2022-10-18T08:22:18.651Z,98806.95
2022-10-18T08:24:46.417Z,98808.88
2022-10-18T08:27:14.771Z,98804.56
2022-10-18T08:29:42.612Z,98801.92
2022-10-18T08:32:10.252Z,98802.34
2022-10-18T08:37:05.744Z,98794.23
2022-10-18T08:39:33.446Z,98796.07
2022-10-18T08:42:33.596Z,98789.97
2022-10-18T08:45:12.595Z,98793.22
2022-10-18T08:47:40.951Z,98793.88
2022-10-18T08:50:19.688Z,98785.00
2022-10-18T08:53:08.089Z,98783.87
2022-10-18T08:55:41.006Z,98785.18
2022-10-18T08:58:22.526Z,98783.36
2022-10-18T09:01:23.229Z,98785.25
2022-10-18T09:03:59.077Z,98786.55
2022-10-18T09:06:38.227Z,98777.55
2022-10-18T09:09:33.954Z,98781.66
2022-10-18T09:12:15.834Z,98775.59
2022-10-18T09:15:04.076Z,98774.98
2022-10-18T09:17:52.711Z,98768.37
2022-10-18T09:20:27.711Z,98764.67
2022-10-18T09:23:01.497Z,98757.34
2022-10-18T09:25:36.733Z,98751.16
2022-10-18T09:28:37.151Z,98741.69
2022-10-18T09:31:28.033Z,98740.85
2022-10-18T09:34:16.426Z,98740.64
2022-10-18T09:36:45.248Z,98737.64
2022-10-18T09:39:18.215Z,98730.27
2022-10-18T09:41:50.665Z,98728.20
2022-10-18T09:44:29.107Z,98729.08
2022-10-18T09:47:16.830Z,98720.37
2022-10-18T09:49:49.602Z,98720.60
2022-10-18T09:52:40.190Z,98709.98
2022-10-18T09:55:19.410Z,98720.55
2022-10-18T09:57:57.052Z,98719.25
2022-10-18T10:00:33.915Z,98704.20
2022-10-18T10:03:04.465Z,98702.05
2022-10-18T10:05:32.474Z,98699.52
2022-10-18T10:08:02.559Z,98695.92
2022-10-18T10:10:33.198Z,98696.19
2022-10-18T10:13:19.873Z,98683.63
2022-10-18T10:16:00.721Z,98679.45
2022-10-18T10:18:38.066Z,98679.84
2022-10-18T10:21:14.995Z,98677.28
2022-10-18T10:23:58.649Z,98670.41
2022-10-18T10:26:37.100Z,98667.20
2022-10-18T10:29:45.066Z,98658.99
2022-10-18T10:32:20.608Z,98659.13
2022-10-18T10:34:49.501Z,98656.72
2022-10-18T10:37:28.773Z,98651.98
2022-10-18T10:40:27.822Z,98640.09
2022-10-18T10:43:43.303Z,98637.31
2022-10-18T10:46:12.111Z,98630.48
2022-10-18T10:48:50.877Z,98620.63
2022-10-18T10:51:38.114Z,98620.13
2022-10-18T10:54:15.075Z,98615.33
2022-10-18T10:57:00.095Z,98611.22
2022-10-18T11:02:17.931Z,98607.02
2022-10-18T11:04:52.050Z,98595.97
2022-10-18T11:07:43.316Z,98594.31
2022-10-18T11:10:15.994Z,98584.67
2022-10-18T11:12:51.290Z,98579.82
2022-10-18T11:15:42.407Z,98576.98
2022-10-18T11:18:30.320Z,98577.82
2022-10-18T11:21:11.277Z,98566.75
2022-10-18T11:23:42.492Z,98566.30
2022-10-18T11:26:53.737Z,98564.00
2022-10-18T11:29:38.928Z,98559.94
2022-10-18T11:32:18.594Z,98554.20
2022-10-18T11:35:09.602Z,98546.63
2022-10-18T11:38:06.646Z,98546.88
2022-10-18T11:40:57.742Z,98541.89
2022-10-18T11:44:01.641Z,98530.63
2022-10-18T11:46:54.609Z,98530.47
2022-10-18T11:49:31.078Z,98523.02
2022-10-18T11:52:49.028Z,98517.39
2022-10-18T11:55:49.389Z,98509.58
2022-10-18T11:58:42.431Z,98499.70
2022-10-18T12:01:24.693Z,98496.11
2022-10-18T12:04:20.106Z,98486.13
2022-10-18T12:06:52.479Z,98494.16
2022-10-18T12:09:37.623Z,98489.84
2022-10-18T12:12:26.420Z,98480.41
2022-10-18T12:15:05.511Z,98478.47
2022-10-18T12:17:46.105Z,98480.12
2022-10-18T12:20:36.578Z,98478.55
2022-10-18T12:23:21.606Z,98475.77
2022-10-18T12:26:02.071Z,98469.02
2022-10-18T12:28:54.674Z,98463.02
2022-10-18T12:31:46.188Z,98467.51
2022-10-18T12:34:25.361Z,98458.33
2022-10-18T12:37:01.443Z,98454.28
2022-10-18T12:39:43.850Z,98444.12
2022-10-18T12:42:03.531Z,98445.48
2022-10-18T12:44:34.886Z,98434.09
2022-10-18T12:47:05.751Z,98432.23
2022-10-18T12:49:39.149Z,98428.62
2022-10-18T12:52:23.158Z,98422.31
2022-10-18T12:55:17.783Z,98426.95
2022-10-18T12:58:00.299Z,98422.02
2022-10-18T13:00:36.262Z,98411.33
2022-10-18T13:03:18.544Z,98420.22
2022-10-18T13:05:55.955Z,98403.47
2022-10-18T13:08:39.184Z,98403.16
2022-10-18T13:11:14.523Z,98399.95
2022-10-18T13:14:13.870Z,98404.05
2022-10-18T13:17:23.845Z,98405.11
2022-10-18T13:20:26.066Z,98394.91
2022-10-18T13:23:21.680Z,98396.12
2022-10-18T13:26:04.664Z,98390.70
2022-10-18T13:29:01.959Z,98395.13
2022-10-18T13:32:06.019Z,98391.02
2022-10-18T13:34:39.965Z,98384.77
2022-10-18T13:37:16.603Z,98380.34
2022-10-18T13:39:45.002Z,98376.53
2022-10-18T13:42:37.019Z,98369.47
2022-10-18T14:11:09.668Z,98328.06
2022-10-18T14:14:02.648Z,98328.11
2022-10-18T14:24:21.576Z,98325.39
2022-10-18T14:30:22.852Z,98323.74
2022-10-18T14:32:55.816Z,98322.84
2022-10-18T14:35:32.897Z,98319.64
2022-10-18T14:38:02.522Z,98317.72
2022-10-18T14:40:41.047Z,98316.34
2022-10-18T14:43:17.841Z,98309.97
2022-10-18T14:45:46.299Z,98311.72
2022-10-18T14:48:24.605Z,98305.27
2022-10-18T14:51:00.912Z,98304.91
2022-10-18T14:53:37.278Z,98302.55
2022-10-18T14:56:09.566Z,98302.20
2022-10-18T14:58:40.243Z,98301.41
2022-10-18T15:01:14.116Z,98302.55
2022-10-18T15:03:44.515Z,98294.33
2022-10-18T15:06:20.136Z,98291.52
2022-10-18T15:08:57.036Z,98293.52
2022-10-18T15:11:31.964Z,98292.09
2022-10-18T15:14:12.861Z,98292.95
2022-10-18T15:26:49.540Z,98283.67
2022-10-18T15:46:06.319Z,98280.11
2022-10-18T16:01:45.710Z,98279.34
2022-10-18T16:04:39.600Z,98276.78
2022-10-18T16:07:19.170Z,98277.75
2022-10-18T16:09:55.591Z,98282.16
2022-10-18T16:12:33.060Z,98284.22
2022-10-18T16:21:48.630Z,98282.94
2022-10-18T16:24:20.919Z,98281.02
2022-10-18T16:26:59.132Z,98280.03
2022-10-18T16:29:37.649Z,98272.73
2022-10-18T16:32:05.187Z,98275.78
2022-10-18T16:34:33.593Z,98275.69
2022-10-18T16:37:01.156Z,98282.56
2022-10-18T16:39:30.855Z,98285.05
2022-10-18T16:42:02.484Z,98276.76
2022-10-18T16:44:30.804Z,98283.20
2022-10-18T16:47:01.606Z,98281.55
2022-10-18T16:49:31.824Z,98282.85
2022-10-18T16:51:59.535Z,98287.84
2022-10-18T16:54:27.595Z,98284.52
2022-10-18T16:56:54.910Z,98286.81
2022-10-18T16:59:30.221Z,98291.27
2022-10-18T17:02:04.044Z,98284.13
2022-10-18T17:07:43.965Z,98286.18
2022-10-18T17:10:19.548Z,98285.63
2022-10-18T17:12:48.230Z,98286.33
2022-10-18T17:15:16.273Z,98293.80
2022-10-18T17:17:44.462Z,98286.47
2022-10-18T17:20:20.654Z,98285.61
2022-10-18T17:22:48.972Z,98291.94
2022-10-18T17:25:18.672Z,98290.19
2022-10-18T17:27:52.889Z,98291.44
2022-10-18T17:30:20.681Z,98284.36
2022-10-18T17:32:48.420Z,98285.31
2022-10-18T17:35:16.354Z,98286.78
2022-10-18T17:37:51.552Z,98282.96
2022-10-18T17:40:20.221Z,98285.84
2022-10-18T17:42:47.693Z,98287.09
2022-10-18T17:45:15.193Z,98287.47
2022-10-18T17:47:42.802Z,98285.72
2022-10-18T17:50:10.806Z,98282.06
2022-10-18T17:52:46.594Z,98282.12
2022-10-18T17:55:15.465Z,98278.45
2022-10-18T17:57:45.430Z,98282.88
2022-10-18T18:00:13.643Z,98287.05
2022-10-18T18:02:42.361Z,98283.94
2022-10-18T18:05:10.262Z,98275.45
2022-10-18T18:07:38.129Z,98272.02
2022-10-18T18:10:06.537Z,98277.52
2022-10-18T18:12:34.737Z,98271.78
2022-10-18T18:15:07.593Z,98266.27
2022-10-18T18:17:56.004Z,98271.48
2022-10-18T18:20:07.831Z,98264.39
2022-10-18T18:22:53.843Z,98262.21
2022-10-18T18:25:36.559Z,98264.22
2022-10-18T18:28:07.561Z,98268.39
2022-10-18T18:30:34.710Z,98267.71
2022-10-18T18:33:04.328Z,98262.46
2022-10-18T18:35:32.464Z,98258.77
2022-10-18T18:37:59.951Z,98254.06
2022-10-18T18:40:28.185Z,98258.16
2022-10-18T18:43:07.174Z,98256.16
2022-10-18T18:45:26.662Z,98256.48
2022-10-18T18:47:58.857Z,98252.91
2022-10-18T18:50:48.122Z,98251.89
2022-10-18T18:53:29.469Z,98248.27
2022-10-18T18:56:10.966Z,98241.13
2022-10-18T18:58:40.134Z,98242.30
2022-10-18T19:01:11.841Z,98241.08
2022-10-18T19:03:42.644Z,98244.41
2022-10-18T19:06:15.641Z,98240.78
2022-10-18T19:08:45.368Z,98240.40
2022-10-18T19:11:20.484Z,98234.11
2022-10-18T19:13:51.946Z,98245.75
2022-10-18T19:16:28.860Z,98241.28
2022-10-18T19:19:19.089Z,98234.92
2022-10-18T19:21:51.362Z,98238.20
2022-10-18T19:24:21.258Z,98239.63
2022-10-18T19:27:02.651Z,98242.13
2022-10-18T19:29:40.178Z,98231.45
2022-10-18T19:32:15.757Z,98228.30
2022-10-18T19:38:12.688Z,98224.41
2022-10-18T19:40:44.407Z,98217.81
2022-10-18T19:43:20.541Z,98218.95
2022-10-18T19:46:13.176Z,98210.43
2022-10-18T19:49:29.639Z,98209.44
2022-10-18T19:55:30.621Z,98209.89
2022-10-18T20:01:12.379Z,98208.39
2022-10-18T20:03:40.992Z,98202.30
2022-10-18T20:06:09.034Z,98204.51
2022-10-18T20:08:43.801Z,98196.29
2022-10-18T20:11:15.961Z,98198.22
2022-10-18T20:13:45.810Z,98198.80
2022-10-18T20:16:26.946Z,98191.34
2022-10-18T20:18:57.737Z,98193.82
2022-10-18T20:25:04.990Z,98193.96
2022-10-18T20:27:53.513Z,98188.94
2022-10-18T20:30:22.041Z,98181.47
2022-10-18T20:32:52.734Z,98178.58
2022-10-18T20:35:21.174Z,98178.38
2022-10-18T20:37:49.177Z,98170.66
2022-10-18T20:40:17.263Z,98169.60
2022-10-18T20:42:44.752Z,98170.22
2022-10-18T20:58:19.027Z,98153.11
2022-10-18T21:00:46.599Z,98149.67
2022-10-18T21:03:13.991Z,98150.50
2022-10-18T21:05:41.319Z,98148.36
2022-10-18T21:08:08.565Z,98153.17
2022-10-18T21:10:35.910Z,98151.28
2022-10-18T21:13:03.286Z,98146.47
2022-10-18T21:15:32.197Z,98145.41
2022-10-18T21:17:59.535Z,98147.02
2022-10-18T21:20:30.201Z,98148.61
2022-10-18T21:22:57.267Z,98143.27
2022-10-18T21:25:24.718Z,98141.66
2022-10-18T21:27:51.912Z,98136.60
2022-10-18T21:30:19.143Z,98135.02
2022-10-18T21:32:46.655Z,98132.38
2022-10-18T21:35:14.192Z,98121.64
2022-10-18T21:37:41.351Z,98123.81
2022-10-18T21:40:09.695Z,98124.91
2022-10-18T21:42:36.868Z,98123.33
2022-10-18T21:45:05.658Z,98114.77
2022-10-18T21:47:33.218Z,98116.34
2022-10-18T21:50:00.513Z,98115.62
2022-10-18T21:52:27.806Z,98111.05
2022-10-18T21:54:55.287Z,98109.19
2022-10-18T21:57:22.507Z,98106.81
2022-10-18T21:59:49.704Z,98108.73
2022-10-18T22:02:16.992Z,98106.39
2022-10-18T22:04:44.349Z,98109.90
2022-10-18T22:07:11.782Z,98105.67
2022-10-18T22:09:38.986Z,98101.16
2022-10-18T22:12:06.783Z,98096.92
2022-10-18T22:14:35.524Z,98098.57
2022-10-18T22:17:02.920Z,98090.08
2022-10-18T22:22:40.147Z,98081.91
2022-10-18T22:25:12.110Z,98082.55
2022-10-18T22:31:11.415Z,98081.66
2022-10-18T22:43:09.269Z,98071.03
2022-10-18T22:52:44.239Z,98060.75
2022-10-18T22:55:11.687Z,98059.17
2022-10-18T22:57:39.103Z,98063.98
2022-10-18T23:00:08.000Z,98059.44
2022-10-18T23:02:35.873Z,98056.52
2022-10-18T23:05:03.988Z,98055.20
2022-10-18T23:07:31.321Z,98051.19
2022-10-18T23:09:58.616Z,98050.70
2022-10-18T23:12:25.980Z,98046.95
2022-10-18T23:14:53.576Z,98049.14
2022-10-18T23:17:21.128Z,98042.47
2022-10-18T23:19:48.739Z,98038.78
2022-10-18T23:22:17.951Z,98038.02
2022-10-18T23:24:45.561Z,98040.95
2022-10-18T23:27:13.350Z,98035.36
2022-10-18T23:29:40.888Z,98038.83
2022-10-18T23:32:08.947Z,98037.22
2022-10-18T23:34:36.696Z,98036.43
2022-10-18T23:37:04.301Z,98031.65
2022-10-18T23:39:31.835Z,98033.77
2022-10-18T23:41:59.566Z,98033.53
2022-10-18T23:44:27.662Z,98034.02
2022-10-18T23:46:55.519Z,98032.98
2022-10-18T23:49:23.296Z,98034.32
2022-10-18T23:51:51.168Z,98028.70
2022-10-18T23:54:18.916Z,98024.44
2022-10-18T23:56:46.588Z,98022.84
2022-10-18T23:59:14.352Z,98024.45
